Johan Ruud — LEDR — position and weather

sailwx.info

Track history (hours):
 
Tides and Currents Weather Stations Pressure Air Temp Water Temp Dewpoint Dewpoint Depression Visibility Wind Speed Wind Dir Waves Ship Positions

Oceanographic research ship Johan Ruud (Norway)

Detailed information on ship capabilities available from University of Delaware's Ocean Information Center.

Last reported at 2014-Nov-28 14:33 UTC. Time now 2014-Nov-28 14:39 UTC.
Position N 69°39' E 018°58'.

Length 30 m; draft 4.5 m.

Type: Fishing. MMSI: 257265000.

Date/timePositionNaut miles runAvg speedWind from/ knotsBaromVisibWave heightAir tempDewpointWater temp
2014-Nov-28 14:33N 69°39' E 018°58'0 0.0
2014-Nov-28 13:33N 69°39' E 018°58'0 0.0
2014-Nov-28 12:30N 69°39' E 018°58'0 0.0
2014-Nov-28 11:27N 69°39' E 018°58'0 0.0
2014-Nov-28 10:30N 69°39' E 018°58'1 0.9
2014-Nov-28 09:24N 69°40' E 018°59'0 0.0
2014-Nov-28 08:24N 69°40' E 018°59'0 0.0
2014-Nov-28 07:33N 69°40' E 018°59'0 0.0
2014-Nov-28 06:33N 69°40' E 018°59'0 0.0
2014-Nov-28 05:33N 69°40' E 018°59'0 0.0
2014-Nov-28 04:33N 69°40' E 018°59'0 0.0
2014-Nov-28 03:30N 69°40' E 018°59'0 0.0
2014-Nov-28 02:33N 69°40' E 018°59'114 2.3
2014-Nov-26 00:33N 70°47' E 023°34'1010.0
2014-Nov-25 23:34N 70°39' E 023°16'10 9.7
2014-Nov-25 22:33N 70°31' E 022°58'9 9.1
2014-Nov-25 21:32N 70°29' E 022°31'87 7.2
2014-Nov-25 09:32N 69°40' E 018°60'1 0.8
2014-Nov-25 08:31N 69°39' E 018°58'0 0.0
2014-Nov-25 07:28N 69°39' E 018°58'0 0.0
2014-Nov-25 06:31N 69°39' E 018°58'0 0.0
2014-Nov-25 05:28N 69°39' E 018°58'0 0.0
2014-Nov-25 04:28N 69°39' E 018°58'0 0.0
2014-Nov-25 03:22N 69°39' E 018°58'0 0.0
2014-Nov-25 02:31N 69°39' E 018°58'0 0.0
2014-Nov-25 01:31N 69°39' E 018°58'0 0.0
2014-Nov-25 00:25N 69°39' E 018°58'4 4.4
2014-Nov-24 23:33N 69°36' E 018°53'1 0.2
2014-Nov-24 16:28N 69°35' E 018°51'4 4.2
2014-Nov-24 15:33N 69°38' E 018°57'0 0.0
2014-Nov-24 08:33N 69°38' E 018°57'2 1.5
2014-Nov-24 07:31N 69°39' E 018°58'0 0.0
2014-Nov-24 06:31N 69°39' E 018°58'0 0.0
2014-Nov-24 05:31N 69°39' E 018°58'0 0.0
2014-Nov-24 04:31N 69°39' E 018°58'0 0.0
2014-Nov-24 03:28N 69°39' E 018°58'0 0.0
2014-Nov-24 02:31N 69°39' E 018°58'0 0.0
2014-Nov-24 01:31N 69°39' E 018°58'0 0.0
2014-Nov-24 00:31N 69°39' E 018°58'0 0.0
2014-Nov-23 23:28N 69°39' E 018°58'0 0.0
2014-Nov-23 22:28N 69°39' E 018°58'0 0.0
2014-Nov-23 21:31N 69°39' E 018°58'0 0.0
2014-Nov-23 20:25N 69°39' E 018°58'0 0.0
2014-Nov-23 19:31N 69°39' E 018°58'0 0.0
2014-Nov-23 18:31N 69°39' E 018°58'0 0.0
2014-Nov-23 17:31N 69°39' E 018°58'0 0.0
2014-Nov-23 16:31N 69°39' E 018°58'0 0.0
2014-Nov-23 15:31N 69°39' E 018°58'0 0.0
2014-Nov-23 14:31N 69°39' E 018°58'0 0.0
2014-Nov-23 13:31N 69°39' E 018°58'0 0.0
2014-Nov-23 12:31N 69°39' E 018°58'0 0.0
2014-Nov-23 11:31N 69°39' E 018°58'0 0.0
2014-Nov-23 10:31N 69°39' E 018°58'0 0.0
2014-Nov-23 09:31N 69°39' E 018°58'0 0.0
2014-Nov-23 08:31N 69°39' E 018°58'0 0.0
2014-Nov-23 07:31N 69°39' E 018°58'0 0.0
2014-Nov-23 06:28N 69°39' E 018°58'0 0.0
2014-Nov-23 05:31N 69°39' E 018°58'0 0.0
2014-Nov-23 04:31N 69°39' E 018°58'0 0.0
2014-Nov-23 03:31N 69°39' E 018°58'0 0.0
2014-Nov-23 02:31N 69°39' E 018°58'0 0.0
2014-Nov-23 01:28N 69°39' E 018°58'0 0.0
2014-Nov-23 00:31N 69°39' E 018°58'0 0.0
2014-Nov-22 23:31N 69°39' E 018°58'0 0.0
2014-Nov-22 22:22N 69°39' E 018°58'0 0.0
2014-Nov-22 21:28N 69°39' E 018°58'0 0.0
2014-Nov-22 20:31N 69°39' E 018°58'0 0.0
2014-Nov-22 19:28N 69°39' E 018°58'0 0.0
2014-Nov-22 18:31N 69°39' E 018°58'0 0.0
2014-Nov-22 17:25N 69°39' E 018°58'0 0.0
2014-Nov-22 16:31N 69°39' E 018°58'0 0.0
2014-Nov-22 15:31N 69°39' E 018°58'0 0.0
2014-Nov-22 14:25N 69°39' E 018°58'0 0.0
2014-Nov-22 13:31N 69°39' E 018°58'0 0.0
2014-Nov-22 12:31N 69°39' E 018°58'0 0.0
2014-Nov-22 11:31N 69°39' E 018°58'0 0.0
2014-Nov-22 10:31N 69°39' E 018°58'0 0.0
2014-Nov-22 09:31N 69°39' E 018°58'0 0.0
2014-Nov-22 08:28N 69°39' E 018°58'0 0.0
2014-Nov-22 07:28N 69°39' E 018°58'0 0.0
2014-Nov-22 06:25N 69°39' E 018°58'0 0.0
2014-Nov-22 05:31N 69°39' E 018°58'0 0.0
2014-Nov-22 04:31N 69°39' E 018°58'0 0.0
2014-Nov-22 03:25N 69°39' E 018°58'0 0.0
2014-Nov-22 02:31N 69°39' E 018°58'0 0.0
2014-Nov-22 01:31N 69°39' E 018°58'0 0.0
2014-Nov-22 00:31N 69°39' E 018°58'0 0.0
2014-Nov-21 23:31N 69°39' E 018°58'0 0.0
2014-Nov-21 22:28N 69°39' E 018°58'0 0.0
2014-Nov-21 21:19N 69°39' E 018°58'0 0.0
2014-Nov-21 20:31N 69°39' E 018°58'0 0.0
2014-Nov-21 19:31N 69°39' E 018°58'0 0.0
2014-Nov-21 18:28N 69°39' E 018°58'0 0.0
2014-Nov-21 17:31N 69°39' E 018°58'0 0.0
2014-Nov-21 16:31N 69°39' E 018°58'0 0.0
2014-Nov-21 15:31N 69°39' E 018°58'0 0.0
2014-Nov-21 14:25N 69°39' E 018°58'0 0.0
2014-Nov-21 13:31N 69°39' E 018°58'2 1.6
2014-Nov-21 12:32N 69°41' E 019°01'83 9.2
2014-Nov-21 03:27N 70°28' E 022°23'9 9.7
2014-Nov-21 02:33N 70°30' E 022°48'9 9.0
2014-Nov-21 01:33N 70°35' E 023°10'9 8.9
2014-Nov-21 00:33N 70°42' E 023°28'  
Track history (hours):
 
Tides and Currents Weather Stations Pressure Air Temp Water Temp Dewpoint Dewpoint Depression Visibility Wind Speed Wind Dir Waves Ship Positions

Oceanographic research ship Johan Ruud (Norway)

Detailed information on ship capabilities available from University of Delaware's Ocean Information Center.

Last reported at 2014-Nov-28 14:33 UTC. Time now 2014-Nov-28 14:39 UTC.
Position N 69°39' E 018°58'.

Length 30 m; draft 4.5 m.

Type: Fishing. MMSI: 257265000.

Date/timePositionNaut miles runAvg speedWind from/ knotsBaromVisibWave heightAir tempDewpointWater temp
2014-Nov-28 14:33N 69°39' E 018°58'0 0.0
2014-Nov-28 13:33N 69°39' E 018°58'0 0.0
2014-Nov-28 12:30N 69°39' E 018°58'0 0.0
2014-Nov-28 11:27N 69°39' E 018°58'0 0.0
2014-Nov-28 10:30N 69°39' E 018°58'1 0.9
2014-Nov-28 09:24N 69°40' E 018°59'0 0.0
2014-Nov-28 08:24N 69°40' E 018°59'0 0.0
2014-Nov-28 07:33N 69°40' E 018°59'0 0.0
2014-Nov-28 06:33N 69°40' E 018°59'0 0.0
2014-Nov-28 05:33N 69°40' E 018°59'0 0.0
2014-Nov-28 04:33N 69°40' E 018°59'0 0.0
2014-Nov-28 03:30N 69°40' E 018°59'0 0.0
2014-Nov-28 02:33N 69°40' E 018°59'114 2.3
2014-Nov-26 00:33N 70°47' E 023°34'1010.0
2014-Nov-25 23:34N 70°39' E 023°16'10 9.7
2014-Nov-25 22:33N 70°31' E 022°58'9 9.1
2014-Nov-25 21:32N 70°29' E 022°31'87 7.2
2014-Nov-25 09:32N 69°40' E 018°60'1 0.8
2014-Nov-25 08:31N 69°39' E 018°58'0 0.0
2014-Nov-25 07:28N 69°39' E 018°58'0 0.0
2014-Nov-25 06:31N 69°39' E 018°58'0 0.0
2014-Nov-25 05:28N 69°39' E 018°58'0 0.0
2014-Nov-25 04:28N 69°39' E 018°58'0 0.0
2014-Nov-25 03:22N 69°39' E 018°58'0 0.0
2014-Nov-25 02:31N 69°39' E 018°58'0 0.0
2014-Nov-25 01:31N 69°39' E 018°58'0 0.0
2014-Nov-25 00:25N 69°39' E 018°58'4 4.4
2014-Nov-24 23:33N 69°36' E 018°53'1 0.2
2014-Nov-24 16:28N 69°35' E 018°51'4 4.2
2014-Nov-24 15:33N 69°38' E 018°57'0 0.0
2014-Nov-24 08:33N 69°38' E 018°57'2 1.5
2014-Nov-24 07:31N 69°39' E 018°58'0 0.0
2014-Nov-24 06:31N 69°39' E 018°58'0 0.0
2014-Nov-24 05:31N 69°39' E 018°58'0 0.0
2014-Nov-24 04:31N 69°39' E 018°58'0 0.0
2014-Nov-24 03:28N 69°39' E 018°58'0 0.0
2014-Nov-24 02:31N 69°39' E 018°58'0 0.0
2014-Nov-24 01:31N 69°39' E 018°58'0 0.0
2014-Nov-24 00:31N 69°39' E 018°58'0 0.0
2014-Nov-23 23:28N 69°39' E 018°58'0 0.0
2014-Nov-23 22:28N 69°39' E 018°58'0 0.0
2014-Nov-23 21:31N 69°39' E 018°58'0 0.0
2014-Nov-23 20:25N 69°39' E 018°58'0 0.0
2014-Nov-23 19:31N 69°39' E 018°58'0 0.0
2014-Nov-23 18:31N 69°39' E 018°58'0 0.0
2014-Nov-23 17:31N 69°39' E 018°58'0 0.0
2014-Nov-23 16:31N 69°39' E 018°58'0 0.0
2014-Nov-23 15:31N 69°39' E 018°58'0 0.0
2014-Nov-23 14:31N 69°39' E 018°58'0 0.0
2014-Nov-23 13:31N 69°39' E 018°58'0 0.0
2014-Nov-23 12:31N 69°39' E 018°58'0 0.0
2014-Nov-23 11:31N 69°39' E 018°58'0 0.0
2014-Nov-23 10:31N 69°39' E 018°58'0 0.0
2014-Nov-23 09:31N 69°39' E 018°58'0 0.0
2014-Nov-23 08:31N 69°39' E 018°58'0 0.0
2014-Nov-23 07:31N 69°39' E 018°58'0 0.0
2014-Nov-23 06:28N 69°39' E 018°58'0 0.0
2014-Nov-23 05:31N 69°39' E 018°58'0 0.0
2014-Nov-23 04:31N 69°39' E 018°58'0 0.0
2014-Nov-23 03:31N 69°39' E 018°58'0 0.0
2014-Nov-23 02:31N 69°39' E 018°58'0 0.0
2014-Nov-23 01:28N 69°39' E 018°58'0 0.0
2014-Nov-23 00:31N 69°39' E 018°58'0 0.0
2014-Nov-22 23:31N 69°39' E 018°58'0 0.0
2014-Nov-22 22:22N 69°39' E 018°58'0 0.0
2014-Nov-22 21:28N 69°39' E 018°58'0 0.0
2014-Nov-22 20:31N 69°39' E 018°58'0 0.0
2014-Nov-22 19:28N 69°39' E 018°58'0 0.0
2014-Nov-22 18:31N 69°39' E 018°58'0 0.0
2014-Nov-22 17:25N 69°39' E 018°58'0 0.0
2014-Nov-22 16:31N 69°39' E 018°58'0 0.0
2014-Nov-22 15:31N 69°39' E 018°58'0 0.0
2014-Nov-22 14:25N 69°39' E 018°58'0 0.0
2014-Nov-22 13:31N 69°39' E 018°58'0 0.0
2014-Nov-22 12:31N 69°39' E 018°58'0 0.0
2014-Nov-22 11:31N 69°39' E 018°58'0 0.0
2014-Nov-22 10:31N 69°39' E 018°58'0 0.0
2014-Nov-22 09:31N 69°39' E 018°58'0 0.0
2014-Nov-22 08:28N 69°39' E 018°58'0 0.0
2014-Nov-22 07:28N 69°39' E 018°58'0 0.0
2014-Nov-22 06:25N 69°39' E 018°58'0 0.0
2014-Nov-22 05:31N 69°39' E 018°58'0 0.0
2014-Nov-22 04:31N 69°39' E 018°58'0 0.0
2014-Nov-22 03:25N 69°39' E 018°58'0 0.0
2014-Nov-22 02:31N 69°39' E 018°58'0 0.0
2014-Nov-22 01:31N 69°39' E 018°58'0 0.0
2014-Nov-22 00:31N 69°39' E 018°58'0 0.0
2014-Nov-21 23:31N 69°39' E 018°58'0 0.0
2014-Nov-21 22:28N 69°39' E 018°58'0 0.0
2014-Nov-21 21:19N 69°39' E 018°58'0 0.0
2014-Nov-21 20:31N 69°39' E 018°58'0 0.0
2014-Nov-21 19:31N 69°39' E 018°58'0 0.0
2014-Nov-21 18:28N 69°39' E 018°58'0 0.0
2014-Nov-21 17:31N 69°39' E 018°58'0 0.0
2014-Nov-21 16:31N 69°39' E 018°58'0 0.0
2014-Nov-21 15:31N 69°39' E 018°58'0 0.0
2014-Nov-21 14:25N 69°39' E 018°58'0 0.0
2014-Nov-21 13:31N 69°39' E 018°58'2 1.6
2014-Nov-21 12:32N 69°41' E 019°01'83 9.2
2014-Nov-21 03:27N 70°28' E 022°23'9 9.7
2014-Nov-21 02:33N 70°30' E 022°48'9 9.0
2014-Nov-21 01:33N 70°35' E 023°10'9 8.9
2014-Nov-21 00:33N 70°42' E 023°28'  

Dump ship's entire track history